Time;durP1;ratioP1;P1;durP2;ratioP2;P2;SDS_P1;SDS_P2;PMS_P1;PMS_P2;Temp;Humidity;BMP_temperature;BMP_pressure;BME280_temperature;BME280_humidity;BME280_pressure;Samples;Min_cycle;Max_cycle;Signal;HPM_P1;HPM_P2
2023/08/07 00:00:36;;;;;;;0.17;0.17;;;14.00;81.20;;;;;;4964220;28;20041;-85
2023/08/07 00:03:02;;;;;;;0.00;0.00;;;13.90;81.80;;;;;;4962754;28;20052;-83
2023/08/07 00:05:28;;;;;;;0.20;0.20;;;13.80;82.00;;;;;;4965842;28;20136;-85
2023/08/07 00:07:54;;;;;;;0.60;0.60;;;13.70;82.20;;;;;;4953308;28;20031;-84
2023/08/07 00:10:20;;;;;;;0.20;0.20;;;13.70;82.80;;;;;;4963413;28;20073;-84
2023/08/07 00:12:45;;;;;;;0.10;0.10;;;13.70;83.20;;;;;;4965207;28;20030;-84
2023/08/07 00:15:11;;;;;;;0.10;0.10;;;13.70;83.30;;;;;;4965243;28;20030;-84
2023/08/07 00:17:37;;;;;;;0.00;0.00;;;13.70;83.00;;;;;;4963776;28;20035;-84
2023/08/07 00:20:04;;;;;;;0.20;0.20;;;13.70;83.00;;;;;;4972282;28;20443;-84
2023/08/07 00:22:30;;;;;;;;;;;13.70;83.30;;;;;;4964291;28;20067;-84
2023/08/07 00:24:55;;;;;;;0.10;0.10;;;13.70;83.60;;;;;;4963503;28;19914;-84
2023/08/07 00:27:21;;;;;;;0.00;0.00;;;13.70;83.70;;;;;;4961708;28;20026;-85
2023/08/07 00:29:47;;;;;;;0.00;0.00;;;13.70;83.60;;;;;;4964037;28;20093;-84
2023/08/07 00:32:12;;;;;;;0.00;0.00;;;13.70;83.60;;;;;;4963337;28;20077;-85
2023/08/07 00:34:38;;;;;;;0.38;0.38;;;13.70;83.90;;;;;;4963404;28;20049;-85
2023/08/07 00:37:04;;;;;;;0.10;0.10;;;13.60;83.60;;;;;;4962293;28;20038;-83
2023/08/07 00:39:30;;;;;;;0.10;0.10;;;13.60;83.60;;;;;;4963799;28;20081;-84
2023/08/07 00:41:55;;;;;;;0.10;0.10;;;13.70;83.50;;;;;;4961024;28;20039;-84
2023/08/07 00:44:23;;;;;;;0.20;0.20;;;13.60;83.30;;;;;;4967059;28;20769;-84
2023/08/07 00:46:49;;;;;;;0.10;0.10;;;13.50;83.90;;;;;;4963795;28;20033;-84
2023/08/07 00:49:15;;;;;;;0.00;0.00;;;13.60;83.90;;;;;;4962538;28;20406;-84
2023/08/07 00:51:41;;;;;;;0.13;0.13;;;13.50;84.30;;;;;;4963384;28;20470;-83
2023/08/07 00:54:09;;;;;;;0.00;0.00;;;13.50;84.10;;;;;;4972240;28;20122;-83
2023/08/07 00:56:35;;;;;;;0.10;0.10;;;13.40;84.50;;;;;;4963482;28;20750;-84
2023/08/07 00:59:01;;;;;;;0.00;0.00;;;13.40;84.80;;;;;;4963706;28;20035;-84
2023/08/07 01:01:27;;;;;;;0.40;0.40;;;13.40;84.80;;;;;;4963822;28;20046;-84
2023/08/07 01:03:53;;;;;;;0.08;0.08;;;13.40;85.40;;;;;;4963223;28;20045;-83
2023/08/07 01:06:19;;;;;;;0.10;0.10;;;13.20;86.30;;;;;;4967460;28;20034;-83
2023/08/07 01:08:46;;;;;;;0.20;0.20;;;13.20;86.40;;;;;;4967899;28;20390;-84
2023/08/07 01:11:27;;;;;;;0.10;0.10;;;13.20;86.70;;;;;;4967968;28;20055;-83
2023/08/07 01:14:40;;;;;;;0.08;0.08;;;13.20;86.60;;;;;;4967784;28;20391;-83
2023/08/07 01:17:16;;;;;;;0.10;0.10;;;13.10;86.70;;;;;;4940788;28;20499;-84
2023/08/07 01:19:42;;;;;;;0.08;0.08;;;13.10;86.90;;;;;;4968287;28;20023;-85
2023/08/07 01:22:13;;;;;;;0.10;0.10;;;13.10;86.80;;;;;;4967329;28;20090;-85
2023/08/07 01:24:40;;;;;;;0.08;0.08;;;13.10;87.20;;;;;;4967074;28;20033;-84
2023/08/07 01:27:14;;;;;;;0.05;0.05;;;13.00;87.30;;;;;;4967397;28;20035;-85
2023/08/07 01:29:49;;;;;;;0.05;0.05;;;13.00;87.80;;;;;;4961881;28;20519;-84
2023/08/07 01:32:21;;;;;;;0.10;0.10;;;12.80;88.30;;;;;;4980766;28;20027;-86
2023/08/07 01:34:49;;;;;;;0.10;0.10;;;12.80;89.20;;;;;;4967205;28;20109;-85
2023/08/07 01:37:15;;;;;;;0.10;0.10;;;12.70;89.70;;;;;;4967208;28;20038;-85
2023/08/07 01:39:42;;;;;;;0.20;0.20;;;12.80;89.70;;;;;;4966674;28;20047;-86
2023/08/07 01:42:09;;;;;;;0.10;0.10;;;12.60;90.00;;;;;;4966571;28;20110;-84
2023/08/07 01:44:36;;;;;;;0.10;0.10;;;12.60;90.20;;;;;;4966554;28;20105;-84
2023/08/07 01:47:02;;;;;;;0.10;0.10;;;12.70;90.10;;;;;;4967127;28;20482;-84
2023/08/07 01:49:27;;;;;;;0.10;0.10;;;12.70;90.00;;;;;;4965105;28;20035;-83
2023/08/07 01:51:53;;;;;;;0.10;0.10;;;12.80;89.80;;;;;;4966691;28;20046;-84
2023/08/07 01:54:19;;;;;;;0.10;0.10;;;12.70;89.90;;;;;;4978417;28;20504;-83
2023/08/07 01:56:44;;;;;;;0.10;0.10;;;12.50;90.40;;;;;;4966607;28;20510;-84
2023/08/07 01:59:10;;;;;;;0.10;0.10;;;12.60;90.40;;;;;;4966572;28;20529;-83
2023/08/07 02:01:36;;;;;;;0.10;0.10;;;12.60;90.40;;;;;;4966264;28;20027;-83
2023/08/07 02:04:01;;;;;;;0.10;0.10;;;12.50;90.50;;;;;;4966457;28;20034;-84
2023/08/07 02:06:27;;;;;;;0.10;0.10;;;12.50;90.60;;;;;;4966068;28;20050;-84
2023/08/07 02:08:53;;;;;;;0.05;0.05;;;12.60;90.60;;;;;;4966214;28;20027;-83
2023/08/07 02:11:18;;;;;;;0.10;0.10;;;12.50;90.80;;;;;;4968466;28;20029;-86
2023/08/07 02:13:44;;;;;;;0.00;0.00;;;12.40;91.30;;;;;;4965603;28;20391;-85
2023/08/07 02:16:10;;;;;;;0.10;0.10;;;12.30;91.30;;;;;;4963600;28;20160;-85
2023/08/07 02:18:35;;;;;;;0.10;0.10;;;12.30;91.80;;;;;;4965839;28;20734;-85
2023/08/07 02:21:01;;;;;;;0.10;0.10;;;12.30;91.90;;;;;;4966678;28;20051;-85
2023/08/07 02:23:28;;;;;;;0.03;0.03;;;12.40;91.80;;;;;;4965681;28;20027;-85
2023/08/07 02:25:58;;;;;;;0.13;0.13;;;12.30;91.90;;;;;;4965542;28;20070;-85
2023/08/07 02:28:23;;;;;;;0.10;0.10;;;12.20;91.90;;;;;;4966047;28;20029;-84
2023/08/07 02:30:51;;;;;;;0.57;0.57;;;12.30;91.80;;;;;;4966050;28;20030;-84
2023/08/07 02:33:16;;;;;;;0.10;0.10;;;12.30;91.70;;;;;;4965369;28;20058;-86
2023/08/07 02:35:42;;;;;;;0.20;0.13;;;12.30;91.70;;;;;;4963669;28;20081;-85
2023/08/07 02:38:08;;;;;;;0.10;0.10;;;12.20;92.10;;;;;;4964164;28;20037;-85
2023/08/07 02:40:34;;;;;;;0.20;0.20;;;12.20;92.00;;;;;;4964966;28;20589;-85
2023/08/07 02:42:59;;;;;;;0.00;0.00;;;12.20;92.20;;;;;;4965309;28;20130;-84
2023/08/07 02:45:25;;;;;;;0.10;0.10;;;12.10;92.50;;;;;;4966038;28;20122;-81
2023/08/07 02:47:51;;;;;;;0.10;0.10;;;12.00;93.00;;;;;;4965992;28;20675;-82
2023/08/07 02:50:16;;;;;;;0.10;0.10;;;12.00;93.70;;;;;;4969601;28;20501;-83
2023/08/07 02:52:42;;;;;;;0.15;0.15;;;11.90;93.90;;;;;;4965341;28;20027;-83
2023/08/07 02:55:08;;;;;;;0.10;0.10;;;12.00;94.00;;;;;;4953313;28;20439;-82
2023/08/07 02:57:34;;;;;;;0.10;0.10;;;12.00;94.00;;;;;;4965696;28;20094;-84
2023/08/07 03:00:00;;;;;;;0.10;0.10;;;12.00;94.00;;;;;;4965629;28;20093;-83
2023/08/07 03:02:25;;;;;;;0.55;0.50;;;11.80;94.20;;;;;;4965639;28;20065;-82
2023/08/07 03:04:51;;;;;;;0.10;0.10;;;11.90;94.30;;;;;;4965438;28;20033;-82
2023/08/07 03:07:17;;;;;;;0.22;0.22;;;12.10;94.00;;;;;;4965566;28;20039;-84
2023/08/07 03:09:46;;;;;;;0.10;0.10;;;12.10;94.00;;;;;;4966697;28;20615;-83
2023/08/07 03:12:12;;;;;;;0.10;0.10;;;12.00;93.90;;;;;;4963395;28;20035;-83
2023/08/07 03:14:38;;;;;;;0.45;0.30;;;12.00;94.10;;;;;;4965321;28;20765;-84
2023/08/07 03:17:03;;;;;;;0.10;0.10;;;12.00;94.40;;;;;;4963920;28;20042;-83
2023/08/07 03:19:29;;;;;;;0.35;0.35;;;12.00;94.60;;;;;;4966756;28;20037;-83
2023/08/07 03:21:55;;;;;;;0.10;0.10;;;11.90;94.90;;;;;;4963476;28;20844;-83
2023/08/07 03:24:21;;;;;;;0.10;0.10;;;11.80;95.00;;;;;;4979367;28;20038;-83
2023/08/07 03:26:47;;;;;;;0.10;0.10;;;11.80;94.90;;;;;;4964419;28;20498;-84
2023/08/07 03:29:13;;;;;;;0.10;0.10;;;11.80;94.90;;;;;;4963250;28;20034;-84
2023/08/07 03:31:38;;;;;;;0.10;0.10;;;11.90;94.90;;;;;;4962956;28;20670;-84
2023/08/07 03:34:04;;;;;;;0.10;0.10;;;11.90;95.10;;;;;;4964660;28;20038;-85
2023/08/07 03:36:30;;;;;;;0.43;0.32;;;11.80;95.50;;;;;;4964722;28;20315;-85
2023/08/07 03:38:55;;;;;;;0.10;0.10;;;11.80;95.60;;;;;;4964472;28;20561;-85
2023/08/07 03:41:21;;;;;;;0.15;0.15;;;11.80;95.60;;;;;;4964526;28;20033;-84
2023/08/07 03:43:47;;;;;;;0.10;0.10;;;11.80;95.70;;;;;;4964599;28;20027;-84
2023/08/07 03:46:13;;;;;;;0.10;0.10;;;11.70;95.80;;;;;;4964319;28;20061;-84
2023/08/07 03:48:38;;;;;;;0.10;0.10;;;11.70;95.70;;;;;;4963340;28;20027;-84
2023/08/07 03:51:08;;;;;;;0.10;0.10;;;11.60;95.80;;;;;;4969301;28;20081;-84
2023/08/07 03:53:33;;;;;;;0.45;0.45;;;11.60;95.90;;;;;;4964331;28;20078;-84
2023/08/07 03:55:59;;;;;;;0.10;0.10;;;11.60;95.60;;;;;;4962676;28;20043;-84
2023/08/07 03:58:25;;;;;;;0.10;0.10;;;11.50;95.80;;;;;;4964237;28;20129;-84
2023/08/07 04:00:51;;;;;;;0.10;0.10;;;11.40;96.20;;;;;;4964498;28;20026;-82
2023/08/07 04:03:18;;;;;;;0.10;0.10;;;11.40;96.30;;;;;;4964337;28;20037;-83
2023/08/07 04:05:44;;;;;;;0.10;0.10;;;11.40;96.30;;;;;;4964272;28;20039;-83
2023/08/07 04:08:09;;;;;;;0.20;0.20;;;11.40;96.30;;;;;;4964566;28;20038;-84
2023/08/07 04:10:35;;;;;;;0.40;0.22;;;11.30;96.30;;;;;;4964064;28;20526;-83
2023/08/07 04:13:00;;;;;;;0.10;0.10;;;11.30;96.30;;;;;;4964198;28;20018;-82
2023/08/07 04:15:26;;;;;;;0.10;0.10;;;11.20;96.60;;;;;;4962394;28;20499;-82
2023/08/07 04:17:52;;;;;;;0.10;0.10;;;11.20;96.80;;;;;;4963595;28;20705;-83
2023/08/07 04:20:17;;;;;;;0.10;0.10;;;11.30;96.50;;;;;;4967240;28;20057;-83
2023/08/07 04:22:44;;;;;;;0.10;0.10;;;11.30;96.30;;;;;;4963099;28;20051;-83
2023/08/07 04:25:10;;;;;;;0.35;0.35;;;11.40;96.20;;;;;;4963983;28;20030;-85
2023/08/07 04:27:36;;;;;;;0.35;0.35;;;11.30;96.90;;;;;;4964027;28;20027;-84
2023/08/07 04:30:02;;;;;;;0.10;0.10;;;11.20;97.40;;;;;;4965404;28;20077;-85
2023/08/07 04:32:27;;;;;;;0.10;0.10;;;11.10;97.80;;;;;;4963560;28;20573;-84
2023/08/07 04:34:53;;;;;;;0.10;0.10;;;11.10;97.80;;;;;;4963665;28;20031;-82
2023/08/07 04:37:19;;;;;;;0.20;0.20;;;11.10;97.90;;;;;;4958065;28;20023;-82
2023/08/07 04:39:44;;;;;;;0.88;0.50;;;11.00;98.20;;;;;;4961243;28;20035;-83
2023/08/07 04:42:10;;;;;;;0.30;0.30;;;10.90;98.40;;;;;;4974213;28;20474;-84
2023/08/07 04:44:36;;;;;;;0.10;0.10;;;11.00;98.10;;;;;;4964976;28;20035;-85
2023/08/07 04:47:01;;;;;;;0.10;0.10;;;11.00;97.80;;;;;;4961176;28;20030;-84
2023/08/07 04:49:27;;;;;;;0.10;0.10;;;11.00;97.90;;;;;;4962969;28;20030;-83
2023/08/07 04:51:53;;;;;;;0.10;0.10;;;11.10;97.60;;;;;;4963166;28;20042;-84
2023/08/07 04:54:18;;;;;;;0.10;0.10;;;11.10;97.30;;;;;;4960399;28;20033;-83
2023/08/07 04:56:44;;;;;;;0.10;0.10;;;11.00;97.30;;;;;;4960619;28;20443;-83
2023/08/07 04:59:11;;;;;;;0.10;0.10;;;10.90;97.50;;;;;;4965595;28;20603;-83
2023/08/07 05:01:36;;;;;;;0.30;0.30;;;11.20;97.10;;;;;;4969553;28;20114;-83
2023/08/07 05:04:02;;;;;;;0.10;0.10;;;11.40;96.40;;;;;;4962775;28;20042;-83
2023/08/07 05:06:28;;;;;;;0.05;0.05;;;11.40;95.50;;;;;;4963869;28;20046;-81
2023/08/07 05:08:54;;;;;;;0.10;0.10;;;11.60;95.40;;;;;;4963062;28;20110;-82
2023/08/07 05:11:20;;;;;;;0.80;0.32;;;11.90;93.90;;;;;;4965774;28;20027;-83
2023/08/07 05:13:46;;;;;;;0.10;0.10;;;11.90;93.70;;;;;;4963129;28;20065;-82
2023/08/07 05:16:11;;;;;;;0.03;0.03;;;12.10;93.30;;;;;;4963265;28;20117;-83
2023/08/07 05:18:37;;;;;;;0.10;0.10;;;12.40;92.30;;;;;;4963487;28;20461;-81
2023/08/07 05:21:03;;;;;;;0.15;0.15;;;12.20;92.50;;;;;;4962931;28;20039;-82
2023/08/07 05:23:28;;;;;;;0.10;0.10;;;11.60;93.90;;;;;;4962631;28;20031;-84
2023/08/07 05:25:54;;;;;;;18.75;0.70;;;12.00;93.80;;;;;;4963179;28;20035;-79
2023/08/07 05:28:20;;;;;;;0.00;0.00;;;12.70;91.50;;;;;;4962679;28;20130;-80
2023/08/07 05:30:45;;;;;;;0.45;0.45;;;13.10;90.50;;;;;;4962371;28;20125;-80
2023/08/07 05:33:14;;;;;;;0.00;0.00;;;13.20;90.20;;;;;;4960111;28;20749;-79
2023/08/07 05:35:40;;;;;;;0.03;0.03;;;13.00;90.90;;;;;;4962595;28;20094;-80
2023/08/07 05:38:06;;;;;;;0.10;0.10;;;12.90;91.40;;;;;;4963073;28;20039;-79
2023/08/07 05:40:31;;;;;;;0.20;0.20;;;12.80;91.20;;;;;;4962550;28;20050;-79
2023/08/07 05:42:57;;;;;;;0.10;0.10;;;13.20;91.00;;;;;;4962100;28;20628;-79
2023/08/07 05:45:23;;;;;;;0.00;0.00;;;12.50;91.90;;;;;;4961687;28;20045;-79
2023/08/07 05:47:48;;;;;;;0.10;0.10;;;12.30;93.30;;;;;;4961922;28;20042;-83
2023/08/07 05:50:14;;;;;;;0.00;0.00;;;12.70;93.70;;;;;;4962303;28;20045;-82
2023/08/07 05:52:40;;;;;;;0.10;0.10;;;13.90;90.10;;;;;;4964286;28;20395;-82
2023/08/07 05:55:06;;;;;;;0.00;0.00;;;15.30;84.60;;;;;;4963175;28;20094;-83
2023/08/07 05:57:32;;;;;;;0.00;0.00;;;15.70;80.50;;;;;;4965874;28;20034;-84
2023/08/07 05:59:57;;;;;;;0.00;0.00;;;16.40;78.20;;;;;;4964317;28;20046;-84
2023/08/07 06:02:23;;;;;;;0.10;0.10;;;17.90;73.10;;;;;;4964275;28;20045;-83
2023/08/07 06:04:49;;;;;;;0.00;0.00;;;17.90;72.40;;;;;;4965716;28;20027;-84
2023/08/07 06:07:15;;;;;;;0.20;0.20;;;17.50;73.30;;;;;;4966220;28;20518;-84
2023/08/07 06:09:41;;;;;;;0.00;0.00;;;17.50;72.20;;;;;;4957581;28;20047;-84
2023/08/07 06:12:07;;;;;;;0.10;0.10;;;16.80;74.10;;;;;;4978878;28;20495;-84
2023/08/07 06:14:33;;;;;;;0.00;0.00;;;15.90;77.30;;;;;;4964020;28;20053;-83
2023/08/07 06:17:00;;;;;;;0.00;0.00;;;16.50;76.00;;;;;;4965006;28;20554;-84
2023/08/07 06:19:27;;;;;;;0.90;0.47;;;16.70;75.10;;;;;;4966785;28;20126;-85
2023/08/07 06:21:53;;;;;;;0.10;0.10;;;15.80;77.30;;;;;;4964757;28;20132;-86
2023/08/07 06:24:19;;;;;;;0.00;0.00;;;15.70;78.60;;;;;;4957188;28;20749;-88
2023/08/07 06:26:45;;;;;;;0.00;0.00;;;15.90;78.80;;;;;;4960774;28;20034;-88
2023/08/07 06:29:10;;;;;;;0.10;0.10;;;16.50;77.50;;;;;;4966160;28;20262;-87
2023/08/07 06:31:36;;;;;;;0.00;0.00;;;17.00;75.30;;;;;;4965976;28;20039;-88
2023/08/07 06:34:02;;;;;;;0.00;0.00;;;16.60;75.70;;;;;;4966382;28;20031;-87
2023/08/07 06:36:28;;;;;;;0.10;0.10;;;17.50;73.90;;;;;;4966059;28;20058;-87
2023/08/07 06:38:54;;;;;;;0.00;0.00;;;18.70;70.90;;;;;;4966056;28;20059;-89
2023/08/07 06:41:20;;;;;;;0.73;0.73;;;19.10;68.70;;;;;;4966297;28;20109;-88
2023/08/07 06:43:45;;;;;;;0.00;0.00;;;20.80;64.40;;;;;;4964374;28;20280;-88
2023/08/07 06:46:11;;;;;;;0.00;0.00;;;21.80;62.30;;;;;;4965567;28;20105;-87
2023/08/07 06:48:37;;;;;;;0.10;0.10;;;22.00;60.80;;;;;;4964014;28;20030;-88
2023/08/07 06:51:03;;;;;;;0.00;0.00;;;22.90;57.60;;;;;;4965524;28;20058;-87
2023/08/07 06:53:28;;;;;;;0.25;0.25;;;23.20;57.20;;;;;;4964902;28;20031;-88
2023/08/07 06:55:54;;;;;;;0.00;0.00;;;23.80;56.10;;;;;;4965187;28;20661;-87
2023/08/07 06:58:20;;;;;;;0.00;0.00;;;23.40;56.90;;;;;;4971638;28;21113;-88
2023/08/07 07:00:46;;;;;;;0.00;0.00;;;23.70;55.70;;;;;;4965775;28;20061;-88
2023/08/07 07:03:12;;;;;;;0.00;0.00;;;23.40;52.50;;;;;;4964657;28;20038;-87
2023/08/07 07:05:38;;;;;;;;;;;23.80;55.20;;;;;;4971087;28;20387;-88
2023/08/07 07:08:04;;;;;;;0.00;0.00;;;24.20;55.10;;;;;;4965645;28;19957;-88
2023/08/07 07:10:29;;;;;;;0.00;0.00;;;24.60;54.70;;;;;;4965115;28;20042;-88
2023/08/07 07:12:55;;;;;;;0.00;0.00;;;23.90;53.10;;;;;;4962949;28;20038;-89
2023/08/07 07:15:21;;;;;;;0.00;0.00;;;25.60;52.50;;;;;;4960012;28;20120;-89
2023/08/07 07:17:47;;;;;;;0.13;0.13;;;24.30;54.30;;;;;;4962527;28;20487;-89
2023/08/07 07:20:12;;;;;;;0.00;0.00;;;25.00;49.90;;;;;;4969365;28;20034;-89
2023/08/07 07:22:38;;;;;;;0.45;0.25;;;26.20;49.60;;;;;;4965593;28;20089;-89
2023/08/07 07:25:04;;;;;;;0.00;0.00;;;26.00;50.20;;;;;;4970182;28;20030;-89
2023/08/07 07:27:30;;;;;;;;;;;26.40;49.60;;;;;;4965320;28;20031;-89
2023/08/07 07:29:55;;;;;;;0.00;0.00;;;26.40;49.90;;;;;;4965253;28;20364;-89
2023/08/07 07:32:21;;;;;;;0.00;0.00;;;26.10;50.40;;;;;;4965998;28;20566;-90
2023/08/07 07:34:47;;;;;;;0.00;0.00;;;26.80;48.10;;;;;;4965698;28;20368;-86
2023/08/07 07:37:14;;;;;;;0.00;0.00;;;27.60;47.50;;;;;;4965177;28;20045;-86
2023/08/07 07:39:39;;;;;;;0.00;0.00;;;27.60;47.50;;;;;;4963617;28;20138;-86
2023/08/07 07:42:07;;;;;;;0.00;0.00;;;28.00;46.90;;;;;;4965074;28;20565;-86
2023/08/07 07:44:33;;;;;;;0.05;0.05;;;27.70;47.40;;;;;;4966126;28;20062;-87
2023/08/07 07:46:59;;;;;;;4.05;0.80;;;28.10;46.30;;;;;;4965232;28;20023;-86
2023/08/07 07:49:25;;;;;;;0.00;0.00;;;28.20;46.70;;;;;;4969298;28;20364;-86
2023/08/07 07:51:51;;;;;;;0.20;0.20;;;29.10;46.10;;;;;;4966965;28;20043;-87
2023/08/07 07:54:16;;;;;;;0.00;0.00;;;28.70;46.50;;;;;;4965472;28;20039;-88
2023/08/07 07:56:42;;;;;;;;;;;28.90;47.20;;;;;;4965735;28;20039;-87
2023/08/07 07:59:08;;;;;;;0.75;0.47;;;29.30;45.50;;;;;;4963631;28;19914;-87
2023/08/07 08:01:33;;;;;;;;;;;29.00;44.10;;;;;;4962904;28;20034;-86
2023/08/07 08:03:59;;;;;;;0.15;0.15;;;29.50;43.60;;;;;;4979046;28;19944;-85
2023/08/07 08:06:25;;;;;;;;;;;29.90;43.30;;;;;;4964227;28;20110;-84
2023/08/07 08:08:50;;;;;;;0.00;0.00;;;28.60;43.70;;;;;;4964630;28;19914;-84
2023/08/07 08:11:16;;;;;;;;;;;28.90;44.70;;;;;;4970965;28;20034;-85
2023/08/07 08:13:42;;;;;;;0.08;0.08;;;29.40;44.60;;;;;;4963887;28;19910;-85
2023/08/07 08:16:07;;;;;;;0.00;0.00;;;29.80;43.90;;;;;;4962328;28;20074;-84
2023/08/07 08:18:33;;;;;;;;;;;30.70;45.00;;;;;;4964800;28;20058;-85
2023/08/07 08:20:59;;;;;;;0.00;0.00;;;31.10;43.10;;;;;;4966773;28;19913;-86
2023/08/07 08:23:24;;;;;;;0.17;0.17;;;31.00;40.30;;;;;;4964361;28;20031;-86
2023/08/07 08:25:50;;;;;;;0.00;0.00;;;30.30;42.60;;;;;;4960707;28;20067;-86
2023/08/07 08:28:17;;;;;;;0.55;0.55;;;30.00;41.40;;;;;;4969064;28;20513;-85
2023/08/07 08:30:42;;;;;;;0.00;0.00;;;31.20;42.30;;;;;;4964127;28;20029;-86
2023/08/07 08:33:12;;;;;;;0.00;0.00;;;32.50;40.70;;;;;;4968423;28;20026;-86
2023/08/07 08:35:38;;;;;;;0.00;0.00;;;32.50;39.60;;;;;;4968909;28;20387;-85
2023/08/07 08:38:03;;;;;;;0.03;0.03;;;32.00;39.20;;;;;;4963554;28;20037;-85
2023/08/07 08:40:31;;;;;;;0.00;0.00;;;32.20;40.20;;;;;;4962398;28;20720;-85
2023/08/07 08:43:00;;;;;;;6.75;0.40;;;32.90;39.80;;;;;;4958972;28;20945;-85
2023/08/07 08:45:26;;;;;;;0.00;0.00;;;33.70;39.70;;;;;;4962659;28;20050;-85
2023/08/07 08:48:00;;;;;;;0.00;0.00;;;33.10;39.10;;;;;;4964522;28;20062;-86
2023/08/07 08:50:26;;;;;;;0.00;0.00;;;32.50;37.80;;;;;;4964520;28;20034;-86
2023/08/07 08:52:55;;;;;;;0.00;0.00;;;32.60;40.10;;;;;;4963706;28;20077;-85
2023/08/07 08:55:21;;;;;;;0.00;0.00;;;31.80;40.90;;;;;;4964328;28;20074;-85
2023/08/07 08:57:48;;;;;;;0.00;0.00;;;32.50;38.50;;;;;;4960876;28;20078;-85
2023/08/07 09:00:25;;;;;;;0.00;0.00;;;32.10;38.20;;;;;;4959375;28;20038;-86
2023/08/07 09:02:52;;;;;;;0.00;0.00;;;31.70;38.70;;;;;;4964874;28;20439;-85
2023/08/07 09:05:20;;;;;;;0.00;0.00;;;31.10;39.60;;;;;;4963095;28;20134;-87
2023/08/07 09:07:49;;;;;;;0.00;0.00;;;31.60;40.00;;;;;;4961912;28;20035;-90
2023/08/07 09:10:16;;;;;;;0.08;0.08;;;33.20;39.00;;;;;;4963266;28;20062;-87
2023/08/07 09:12:51;;;;;;;0.00;0.00;;;33.90;38.30;;;;;;4964009;28;20561;-88
2023/08/07 09:15:19;;;;;;;0.00;0.00;;;34.10;37.90;;;;;;4963591;28;20039;-87
2023/08/07 09:17:46;;;;;;;0.00;0.00;;;34.10;37.50;;;;;;4963453;28;20419;-86
2023/08/07 09:20:13;;;;;;;0.00;0.00;;;35.20;37.00;;;;;;4965666;28;20077;-88
2023/08/07 09:22:42;;;;;;;0.17;0.17;;;34.80;35.70;;;;;;4964043;28;20057;-87
2023/08/07 09:25:09;;;;;;;0.00;0.00;;;35.00;36.80;;;;;;4967878;28;20055;-86
2023/08/07 09:27:36;;;;;;;0.00;0.00;;;35.40;36.30;;;;;;4966421;28;20082;-86
2023/08/07 09:30:04;;;;;;;0.43;0.30;;;35.10;35.30;;;;;;4967334;28;20035;-87
2023/08/07 09:32:30;;;;;;;0.00;0.00;;;35.40;35.60;;;;;;4960106;28;20038;-86
2023/08/07 09:34:56;;;;;;;0.22;0.15;;;35.60;35.10;;;;;;4962940;28;20038;-87
2023/08/07 09:37:23;;;;;;;0.00;0.00;;;35.10;34.90;;;;;;4966721;28;20035;-88
2023/08/07 09:39:48;;;;;;;0.00;0.00;;;34.70;34.00;;;;;;4967010;28;20048;-87
2023/08/07 09:42:15;;;;;;;0.00;0.00;;;35.00;34.30;;;;;;4967637;28;20030;-87
2023/08/07 09:44:42;;;;;;;0.03;0.03;;;33.50;34.80;;;;;;4971479;28;20028;-86
2023/08/07 09:47:16;;;;;;;0.00;0.00;;;33.80;37.30;;;;;;4968411;28;20137;-86
2023/08/07 09:49:43;;;;;;;0.38;0.30;;;34.20;34.20;;;;;;4963938;28;20034;-88
2023/08/07 09:52:11;;;;;;;0.00;0.00;;;34.40;34.60;;;;;;4971414;28;20766;-86
2023/08/07 09:54:37;;;;;;;0.00;0.00;;;35.00;33.60;;;;;;4968841;28;20049;-88
2023/08/07 09:57:04;;;;;;;0.35;0.32;;;33.60;37.30;;;;;;4975317;28;20037;-87
2023/08/07 09:59:31;;;;;;;0.00;0.00;;;32.50;38.90;;;;;;4974844;28;20840;-85
2023/08/07 10:01:57;;;;;;;0.00;0.00;;;33.60;36.70;;;;;;4977354;28;20044;-88
2023/08/07 10:04:23;;;;;;;0.00;0.00;;;35.40;36.50;;;;;;4964884;28;20034;-89
2023/08/07 10:06:50;;;;;;;0.00;0.00;;;34.40;35.80;;;;;;4967367;28;20031;-86
2023/08/07 10:09:16;;;;;;;0.00;0.00;;;35.00;37.90;;;;;;4965523;28;20168;-89
2023/08/07 10:11:42;;;;;;;0.00;0.00;;;35.30;33.50;;;;;;4966111;28;20085;-88
2023/08/07 10:14:15;;;;;;;0.00;0.00;;;35.80;32.00;;;;;;4965905;28;20442;-87
2023/08/07 10:16:41;;;;;;;0.00;0.00;;;32.10;35.00;;;;;;4966460;28;20035;-88
2023/08/07 10:19:08;;;;;;;;;;;33.80;39.90;;;;;;4968875;28;20026;-87
2023/08/07 10:21:36;;;;;;;0.08;0.08;;;33.30;38.60;;;;;;4968666;28;20013;-90
2023/08/07 10:24:04;;;;;;;0.00;0.00;;;29.70;42.60;;;;;;4965589;28;20114;-87
2023/08/07 10:26:34;;;;;;;0.05;0.05;;;27.40;46.20;;;;;;4966146;28;20030;-89
2023/08/07 10:29:02;;;;;;;0.00;0.00;;;27.70;44.80;;;;;;4961476;28;20027;-87
2023/08/07 10:31:30;;;;;;;0.00;0.00;;;27.00;45.00;;;;;;4966302;28;20027;-89
2023/08/07 10:33:55;;;;;;;0.00;0.00;;;31.70;41.90;;;;;;4966507;28;20065;-89
2023/08/07 10:36:21;;;;;;;0.08;0.08;;;31.80;37.70;;;;;;4964494;28;20039;-88
2023/08/07 10:38:51;;;;;;;0.00;0.00;;;31.00;38.50;;;;;;4966640;28;20035;-88
2023/08/07 10:41:18;;;;;;;0.57;0.35;;;31.20;39.10;;;;;;4962071;28;20110;-88
2023/08/07 10:43:45;;;;;;;0.20;0.20;;;30.90;42.90;;;;;;4967145;28;20026;-89
2023/08/07 10:46:23;;;;;;;0.00;0.00;;;30.60;44.00;;;;;;4964766;28;20030;-87
2023/08/07 10:48:59;;;;;;;0.00;0.00;;;29.30;43.10;;;;;;4966219;28;20650;-88
2023/08/07 10:51:32;;;;;;;0.00;0.00;;;28.30;44.50;;;;;;4966313;28;20030;-88
2023/08/07 10:54:01;;;;;;;0.00;0.00;;;27.20;46.10;;;;;;4965714;28;20035;-87
2023/08/07 10:56:31;;;;;;;0.00;0.00;;;26.80;45.50;;;;;;4965672;28;20042;-88
2023/08/07 10:58:57;;;;;;;0.00;0.00;;;25.90;45.40;;;;;;4965871;28;20042;-87
2023/08/07 11:01:35;;;;;;;0.00;0.00;;;25.80;47.30;;;;;;4965852;28;20023;-86
2023/08/07 11:04:06;;;;;;;0.10;0.03;;;26.90;50.50;;;;;;4966044;28;21128;-88
2023/08/07 11:06:36;;;;;;;0.00;0.00;;;26.50;46.70;;;;;;4966046;28;20747;-88
2023/08/07 11:09:05;;;;;;;0.00;0.00;;;26.00;45.80;;;;;;4966160;28;20118;-89
2023/08/07 11:11:46;;;;;;;0.00;0.00;;;25.70;46.60;;;;;;4966599;28;20030;-88
2023/08/07 11:14:16;;;;;;;0.30;0.28;;;26.10;51.80;;;;;;4966371;28;20142;-86
2023/08/07 11:16:43;;;;;;;0.10;0.10;;;26.20;51.40;;;;;;4966173;28;20066;-86
2023/08/07 11:19:09;;;;;;;0.00;0.00;;;26.30;49.30;;;;;;4967166;28;20543;-82
2023/08/07 11:21:36;;;;;;;0.00;0.00;;;26.70;50.00;;;;;;4965273;28;20082;-83
2023/08/07 11:24:02;;;;;;;0.00;0.00;;;27.20;47.00;;;;;;4965319;28;20766;-84
2023/08/07 11:26:28;;;;;;;0.00;0.00;;;27.70;48.80;;;;;;4967012;28;20027;-86
2023/08/07 11:28:57;;;;;;;0.00;0.00;;;27.50;50.40;;;;;;4965650;28;20038;-85
2023/08/07 11:31:24;;;;;;;0.00;0.00;;;27.30;47.10;;;;;;4957394;28;20042;-86
2023/08/07 11:33:51;;;;;;;1.30;1.20;;;26.40;45.40;;;;;;4963399;28;20074;-86
2023/08/07 11:36:17;;;;;;;0.10;0.10;;;26.30;46.40;;;;;;4967912;28;20050;-85
2023/08/07 11:38:44;;;;;;;0.05;0.03;;;26.60;47.10;;;;;;4961448;28;20057;-85
2023/08/07 11:41:12;;;;;;;0.00;0.00;;;26.60;47.20;;;;;;4962607;28;20064;-86
2023/08/07 11:43:38;;;;;;;0.03;0.03;;;25.90;45.10;;;;;;4968871;28;20564;-85
2023/08/07 11:46:05;;;;;;;0.15;0.15;;;25.20;46.40;;;;;;4964098;28;20446;-85
2023/08/07 11:48:33;;;;;;;0.00;0.00;;;25.30;48.30;;;;;;4964256;28;20113;-85
2023/08/07 11:51:00;;;;;;;0.00;0.00;;;25.70;47.70;;;;;;4964918;28;20033;-85
2023/08/07 11:53:27;;;;;;;0.00;0.00;;;25.50;46.60;;;;;;4958133;28;20038;-85
2023/08/07 11:55:56;;;;;;;0.00;0.00;;;25.10;47.40;;;;;;4964423;28;20027;-85
2023/08/07 11:58:24;;;;;;;0.00;0.00;;;25.30;47.60;;;;;;4964136;28;20042;-86
2023/08/07 12:00:50;;;;;;;0.00;0.00;;;25.30;46.00;;;;;;4963793;28;20050;-85
2023/08/07 12:03:32;;;;;;;0.00;0.00;;;25.90;49.10;;;;;;4968949;28;20718;-85
2023/08/07 12:05:59;;;;;;;0.32;0.32;;;26.10;50.20;;;;;;4962795;28;20133;-86
2023/08/07 12:08:38;;;;;;;0.10;0.10;;;26.40;48.00;;;;;;4963863;28;20053;-85
2023/08/07 12:11:13;;;;;;;0.00;0.00;;;26.80;48.10;;;;;;4964451;28;20043;-86
2023/08/07 12:13:44;;;;;;;0.00;0.00;;;26.70;46.20;;;;;;4962972;28;20052;-85
2023/08/07 12:16:15;;;;;;;0.00;0.00;;;26.00;47.50;;;;;;4962623;28;20031;-85
2023/08/07 12:18:50;;;;;;;0.25;0.25;;;25.60;47.10;;;;;;4967446;28;20027;-84
2023/08/07 12:21:23;;;;;;;0.00;0.00;;;25.50;47.00;;;;;;4963377;28;20050;-85
2023/08/07 12:23:50;;;;;;;0.00;0.00;;;25.70;48.20;;;;;;4963985;28;20027;-85
2023/08/07 12:26:17;;;;;;;0.10;0.10;;;25.80;47.20;;;;;;4966451;28;20045;-85
2023/08/07 12:28:42;;;;;;;0.00;0.00;;;25.70;46.10;;;;;;4964324;28;20149;-85
2023/08/07 12:31:08;;;;;;;0.00;0.00;;;25.80;45.60;;;;;;4964378;28;20828;-85
2023/08/07 12:33:34;;;;;;;0.00;0.00;;;26.20;45.60;;;;;;4964584;28;20101;-85
2023/08/07 12:36:01;;;;;;;1.10;0.77;;;26.30;44.80;;;;;;4964686;28;20035;-85
2023/08/07 12:38:27;;;;;;;0.00;0.00;;;26.70;47.50;;;;;;4963829;28;20104;-85
2023/08/07 12:40:53;;;;;;;0.00;0.00;;;26.50;46.40;;;;;;4964305;28;20518;-85
2023/08/07 12:43:19;;;;;;;0.05;0.05;;;25.90;46.00;;;;;;4968911;28;20113;-84
2023/08/07 12:45:44;;;;;;;0.00;0.00;;;26.20;47.50;;;;;;4964264;28;20614;-83